Eagle Bend, Minnesota
Current Conditions -  °F | °C
As of 7:33 PM on Tuesday 21 Oct 2014 (Local Time) from KSAZ Reporting Station
Clear Clear  
Wind Chill: 50°   Ceiling: Unl
Heat Index: 50°   Visibility: 10mi
Dew Point: 37°   Wind: 8mph
Humidity: 62%   Direction: 130°SE
Pressure: 30.07"   Gusts: NA
Location:  46.16°N, 95.04°W
Report Text: KSAZ 220033Z AUTO 13007KT 10SM CLR 10/03 A3007 RMK AO2
Loading
Personal Weather Stations






























Interactive Weather Map
Tropical Storm Tracking
New forecast layout! Learn more

10-Day Weather Forecast

Advertisements
Track Severe Weather on mobile